Time;durP1;ratioP1;P1;durP2;ratioP2;P2;SDS_P1;SDS_P2;PMS_P1;PMS_P2;Temp;Humidity;BMP_temperature;BMP_pressure;BME280_temperature;BME280_humidity;BME280_pressure;Samples;Min_cycle;Max_cycle;Signal;HPM_P1;HPM_P2
2021/12/08 00:01:57;;;;;;;;;;;;;;;9.17;100.00;98999.56;5072825;28;20372;-51
2021/12/08 00:04:23;;;;;;;;;;;;;;;9.19;100.00;99037.50;5074051;28;20369;-49
2021/12/08 00:06:48;;;;;;;;;;;;;;;9.62;100.00;99024.88;5074337;28;19927;-50
2021/12/08 00:09:26;;;;;;;;;;;;;;;9.43;100.00;99048.16;5074182;28;19921;-52
2021/12/08 00:14:36;;;;;;;;;;;;;;;9.22;100.00;99031.69;5073955;28;20063;-54
2021/12/08 00:17:01;;;;;;;;;;;;;;;9.35;100.00;99030.69;5056341;28;20019;-50
2021/12/08 00:19:28;;;;;;;;;;;;;;;9.35;100.00;99003.19;5073962;28;19920;-50
2021/12/08 00:21:53;;;;;;;;;;;;;;;9.64;100.00;98997.91;5072543;28;20015;-51
2021/12/08 00:24:19;;;;;;;;;;;;;;;9.37;100.00;99006.41;5072519;28;19994;-50
2021/12/08 00:26:44;;;;;;;;;;;;;;;9.46;100.00;99007.72;5073787;28;19935;-49
2021/12/08 00:29:09;;;;;;;;;;;;;;;9.37;100.00;99011.75;5072881;28;20071;-52
2021/12/08 00:31:35;;;;;;;;;;;;;;;9.36;100.00;98997.63;5073511;28;19920;-50
2021/12/08 00:34:01;;;;;;;;;;;;;;;9.41;100.00;98996.91;5073434;28;20018;-50
2021/12/08 00:36:31;;;;;;;;;;;;;;;9.42;100.00;99004.69;5074673;28;19916;-49
2021/12/08 00:38:57;;;;;;;;;;;;;;;9.58;100.00;98987.16;5075806;28;19925;-53
2021/12/08 00:41:22;;;;;;;;;;;;;;;9.65;100.00;99018.22;5074123;28;19924;-51
2021/12/08 00:43:48;;;;;;;;;;;;;;;9.76;100.00;99017.41;5073372;28;19920;-54
2021/12/08 00:46:13;;;;;;;;;;;;;;;9.78;100.00;99019.84;5074019;28;20311;-49
2021/12/08 00:48:41;;;;;;;;;;;;;;;9.54;100.00;99009.19;5073047;28;20018;-50
2021/12/08 00:51:06;;;;;;;;;;;;;;;9.37;100.00;99009.91;5071937;28;19988;-51
2021/12/08 00:53:32;;;;;;;;;;;;;;;9.77;100.00;99000.34;5073397;28;20359;-53
2021/12/08 00:55:57;;;;;;;;;;;;;;;9.76;100.00;99007.53;5073213;28;19920;-52
2021/12/08 00:58:22;;;;;;;;;;;;;;;9.31;100.00;99005.47;5072165;28;19931;-53
2021/12/08 01:00:50;;;;;;;;;;;;;;;9.56;100.00;99007.91;5073649;28;20391;-50
2021/12/08 01:03:16;;;;;;;;;;;;;;;9.65;100.00;99013.72;5072113;28;19924;-52
2021/12/08 01:05:44;;;;;;;;;;;;;;;9.63;100.00;99017.66;5072846;28;20300;-58
2021/12/08 01:08:09;;;;;;;;;;;;;;;9.84;100.00;99032.25;5073138;28;19927;-51
2021/12/08 01:10:35;;;;;;;;;;;;;;;10.28;100.00;99042.47;5073136;28;20292;-51
2021/12/08 01:13:02;;;;;;;;;;;;;;;10.03;100.00;99032.91;5054914;28;19966;-49
2021/12/08 01:15:29;;;;;;;;;;;;;;;9.68;100.00;99031.09;5073003;28;20330;-49
2021/12/08 01:17:55;;;;;;;;;;;;;;;9.71;100.00;99033.31;5072852;28;19974;-49
2021/12/08 01:20:21;;;;;;;;;;;;;;;9.46;100.00;99040.53;5072746;28;19924;-51
2021/12/08 01:22:47;;;;;;;;;;;;;;;9.56;100.00;99037.28;5072764;28;19920;-50
2021/12/08 01:25:12;;;;;;;;;;;;;;;10.13;100.00;99037.66;5073237;28;19923;-51
2021/12/08 01:27:37;;;;;;;;;;;;;;;9.86;100.00;99036.31;5071583;28;19932;-50
2021/12/08 01:30:04;;;;;;;;;;;;;;;9.88;100.00;99030.75;5072691;28;19924;-50
2021/12/08 01:32:30;;;;;;;;;;;;;;;10.09;100.00;99045.31;5072909;28;19928;-53
2021/12/08 01:34:55;;;;;;;;;;;;;;;10.16;100.00;99040.66;5072644;28;19935;-52
2021/12/08 01:37:21;;;;;;;;;;;;;;;10.29;100.00;99038.75;5072718;28;19932;-48
2021/12/08 01:39:46;;;;;;;;;;;;;;;10.54;100.00;99038.47;5072580;28;19920;-51
2021/12/08 01:42:17;;;;;;;;;;;;;;;10.64;100.00;99040.50;5072611;28;20291;-51
2021/12/08 01:47:27;;;;;;;;;;;;;;;10.78;100.00;99050.88;5072721;28;19921;-52
2021/12/08 01:49:53;;;;;;;;;;;;;;;10.74;100.00;99045.22;5072591;28;20387;-53
2021/12/08 01:52:18;;;;;;;;;;;;;;;10.65;100.00;99052.00;5073077;28;19931;-49
2021/12/08 01:54:44;;;;;;;;;;;;;;;11.13;100.00;99050.69;5072904;28;20015;-48
2021/12/08 01:57:09;;;;;;;;;;;;;;;11.24;100.00;99051.66;5071421;28;20244;-49
2021/12/08 01:59:34;;;;;;;;;;;;;;;11.05;100.00;99069.81;5071423;28;19920;-47
2021/12/08 02:02:00;;;;;;;;;;;;;;;11.11;100.00;99065.38;5072455;28;19928;-49
2021/12/08 02:04:25;;;;;;;;;;;;;;;11.21;100.00;99062.06;5071333;28;20319;-50
2021/12/08 02:06:50;;;;;;;;;;;;;;;11.10;100.00;99071.78;5071324;28;19924;-48
2021/12/08 02:09:16;;;;;;;;;;;;;;;11.31;100.00;99075.59;5072725;28;19961;-47
2021/12/08 02:11:45;;;;;;;;;;;;;;;11.10;100.00;99087.81;5072421;28;19925;-49
2021/12/08 02:14:11;;;;;;;;;;;;;;;11.25;100.00;99074.69;5071721;28;20398;-47
2021/12/08 02:16:37;;;;;;;;;;;;;;;11.04;100.00;99071.66;5071511;28;19924;-53
2021/12/08 02:19:02;;;;;;;;;;;;;;;11.19;100.00;99083.69;5071521;28;19924;-50
2021/12/08 02:21:29;;;;;;;;;;;;;;;11.00;100.00;99083.13;5071911;28;19939;-49
2021/12/08 02:23:56;;;;;;;;;;;;;;;11.19;100.00;99094.38;5072275;28;19978;-51
2021/12/08 02:26:22;;;;;;;;;;;;;;;11.08;100.00;99087.25;5072519;28;19920;-47
2021/12/08 02:28:48;;;;;;;;;;;;;;;10.98;100.00;99112.75;5072767;28;20272;-52
2021/12/08 02:31:18;;;;;;;;;;;;;;;10.89;100.00;99090.94;5072537;28;20007;-50
2021/12/08 02:47:54;;;;;;;;;;;;;;;11.10;100.00;99111.91;5075953;28;20364;-54
2021/12/08 02:50:22;;;;;;;;;;;;;;;11.16;100.00;99121.63;5076320;28;20364;-49
2021/12/08 02:52:47;;;;;;;;;;;;;;;11.08;100.00;99114.00;5075670;28;19916;-50
2021/12/08 02:55:12;;;;;;;;;;;;;;;11.25;100.00;99130.88;5075622;28;19924;-50
2021/12/08 02:57:38;;;;;;;;;;;;;;;11.15;100.00;99120.81;5074421;28;19931;-51
2021/12/08 03:00:09;;;;;;;;;;;;;;;11.00;100.00;99113.34;5075412;28;19985;-52
2021/12/08 03:02:34;;;;;;;;;;;;;;;11.14;100.00;99124.53;5075711;28;19921;-49
2021/12/08 03:04:59;;;;;;;;;;;;;;;11.12;100.00;99117.81;5074119;28;19931;-51
2021/12/08 03:07:25;;;;;;;;;;;;;;;11.23;100.00;99130.31;5075720;28;20010;-50
2021/12/08 03:09:50;;;;;;;;;;;;;;;11.31;100.00;99118.41;5057544;28;19971;-51
2021/12/08 03:12:26;;;;;;;;;;;;;;;11.38;100.00;99124.41;5075908;28;19966;-47
2021/12/08 03:14:51;;;;;;;;;;;;;;;11.33;100.00;99122.47;5075932;28;19926;-47
2021/12/08 03:17:16;;;;;;;;;;;;;;;11.46;100.00;99115.16;5074813;28;19926;-49
2021/12/08 03:19:42;;;;;;;;;;;;;;;11.15;100.00;99122.69;5075680;28;20340;-51
2021/12/08 03:22:10;;;;;;;;;;;;;;;11.52;100.00;99118.72;5074296;28;19921;-52
2021/12/08 03:24:38;;;;;;;;;;;;;;;11.43;100.00;99112.97;5075670;28;20018;-50
2021/12/08 03:27:13;;;;;;;;;;;;;;;11.39;100.00;99122.53;5073717;28;19921;-47
2021/12/08 03:32:14;;;;;;;;;;;;;;;11.01;100.00;99125.66;5074252;28;19943;-51
2021/12/08 03:34:43;;;;;;;;;;;;;;;11.37;100.00;99130.81;5073612;28;19974;-51
2021/12/08 03:37:09;;;;;;;;;;;;;;;11.22;100.00;99125.22;5074746;28;19920;-52
2021/12/08 03:39:35;;;;;;;;;;;;;;;11.27;100.00;99131.44;5075083;28;20019;-51
2021/12/08 03:42:02;;;;;;;;;;;;;;;11.32;100.00;99136.91;5074804;28;19932;-53
2021/12/08 03:44:28;;;;;;;;;;;;;;;11.35;100.00;99138.25;5074998;28;19948;-51
2021/12/08 03:46:55;;;;;;;;;;;;;;;11.27;100.00;99136.78;5074436;28;20380;-53
2021/12/08 03:49:20;;;;;;;;;;;;;;;11.31;100.00;99132.59;5074794;28;19924;-50
2021/12/08 03:51:46;;;;;;;;;;;;;;;11.22;100.00;99146.63;5073223;28;19947;-49
2021/12/08 03:54:13;;;;;;;;;;;;;;;11.21;100.00;99151.16;5074358;28;19927;-49
2021/12/08 03:56:38;;;;;;;;;;;;;;;11.35;100.00;99140.94;5074799;28;19970;-50
2021/12/08 03:59:04;;;;;;;;;;;;;;;11.40;100.00;99143.69;5074013;28;19916;-50
2021/12/08 04:01:30;;;;;;;;;;;;;;;11.66;100.00;99136.09;5074373;28;20331;-51
2021/12/08 04:04:01;;;;;;;;;;;;;;;11.49;100.00;99144.09;5073413;28;19925;-53
2021/12/08 04:06:40;;;;;;;;;;;;;;;11.29;100.00;99158.78;5074152;28;19975;-50
2021/12/08 04:09:13;;;;;;;;;;;;;;;11.34;100.00;99160.72;5074882;28;19920;-50
2021/12/08 04:11:39;;;;;;;;;;;;;;;11.19;100.00;99163.97;5073980;28;19920;-52
2021/12/08 04:14:07;;;;;;;;;;;;;;;11.37;100.00;99164.81;5074759;28;19923;-48
2021/12/08 04:16:34;;;;;;;;;;;;;;;11.23;100.00;99159.75;5056900;28;19966;-49
2021/12/08 04:19:01;;;;;;;;;;;;;;;11.46;100.00;99168.69;5074977;28;19979;-48
2021/12/08 04:21:26;;;;;;;;;;;;;;;11.31;100.00;99166.56;5075055;28;20364;-49
2021/12/08 04:23:52;;;;;;;;;;;;;;;11.05;100.00;99171.47;5074569;28;19928;-51
2021/12/08 04:26:24;;;;;;;;;;;;;;;11.03;100.00;99177.03;5073435;28;19921;-50
2021/12/08 04:28:50;;;;;;;;;;;;;;;10.86;100.00;99176.22;5073725;28;20357;-50
2021/12/08 04:31:18;;;;;;;;;;;;;;;10.92;100.00;99179.78;5074353;28;19924;-50
2021/12/08 04:33:45;;;;;;;;;;;;;;;10.94;100.00;99193.72;5074664;28;20007;-50
2021/12/08 04:36:14;;;;;;;;;;;;;;;10.90;100.00;99194.19;5074944;28;19928;-48
2021/12/08 04:38:43;;;;;;;;;;;;;;;10.88;100.00;99195.50;5074227;28;19920;-49
2021/12/08 04:41:12;;;;;;;;;;;;;;;11.11;100.00;99201.81;5074669;28;19920;-49
2021/12/08 05:02:20;;;;;;;;;;;;;;;10.58;100.00;99175.94;5073208;28;20371;-52
2021/12/08 05:09:54;;;;;;;;;;;;;;;10.45;100.00;99193.03;5074612;28;19960;-49
2021/12/08 05:12:22;;;;;;;;;;;;;;;10.66;100.00;99195.31;5073469;28;19928;-49
2021/12/08 05:14:48;;;;;;;;;;;;;;;10.72;100.00;99203.22;5073442;28;19931;-49
2021/12/08 05:17:15;;;;;;;;;;;;;;;10.73;100.00;99188.00;5072081;28;19921;-50
2021/12/08 05:19:42;;;;;;;;;;;;;;;10.52;100.00;99203.63;5071984;28;20004;-53
2021/12/08 05:22:11;;;;;;;;;;;;;;;10.66;100.00;99220.19;5073359;28;20321;-48
2021/12/08 05:24:38;;;;;;;;;;;;;;;10.45;100.00;99219.75;5073500;28;20007;-49
2021/12/08 05:27:06;;;;;;;;;;;;;;;10.34;100.00;99215.19;5073003;28;20380;-49
2021/12/08 05:29:41;;;;;;;;;;;;;;;10.50;100.00;99215.56;5072506;28;20368;-51
2021/12/08 05:32:07;;;;;;;;;;;;;;;10.33;100.00;99218.91;5073869;28;20292;-52
2021/12/08 05:34:34;;;;;;;;;;;;;;;10.59;100.00;99224.84;5073053;28;19928;-49
2021/12/08 05:36:59;;;;;;;;;;;;;;;10.55;100.00;99223.69;5073216;28;19923;-54
2021/12/08 05:39:26;;;;;;;;;;;;;;;10.50;100.00;99235.09;5074240;28;20380;-48
2021/12/08 05:41:54;;;;;;;;;;;;;;;10.26;100.00;99216.38;5073858;28;19920;-52
2021/12/08 05:44:20;;;;;;;;;;;;;;;10.23;100.00;99206.16;5074037;28;20328;-48
2021/12/08 05:46:47;;;;;;;;;;;;;;;10.37;100.00;99214.72;5072353;28;19931;-50
2021/12/08 05:49:14;;;;;;;;;;;;;;;10.58;100.00;99215.19;5073333;28;20000;-50
2021/12/08 05:51:40;;;;;;;;;;;;;;;10.31;100.00;99221.00;5073262;28;19948;-50
2021/12/08 05:54:11;;;;;;;;;;;;;;;10.13;100.00;99228.09;5072937;28;20280;-51
2021/12/08 05:56:36;;;;;;;;;;;;;;;10.16;100.00;99222.31;5072853;28;19921;-50
2021/12/08 05:59:04;;;;;;;;;;;;;;;10.31;100.00;99221.84;5071893;28;20357;-55
2021/12/08 06:01:32;;;;;;;;;;;;;;;10.31;100.00;99229.03;5073095;28;20008;-54
2021/12/08 06:03:59;;;;;;;;;;;;;;;10.25;100.00;99227.31;5073733;28;19927;-49
2021/12/08 06:06:26;;;;;;;;;;;;;;;10.15;100.00;99242.06;5073678;28;19981;-48
2021/12/08 06:08:52;;;;;;;;;;;;;;;9.98;100.00;99246.47;5071427;28;19967;-50
2021/12/08 06:11:18;;;;;;;;;;;;;;;10.25;100.00;99252.16;5074186;28;19924;-49
2021/12/08 06:13:45;;;;;;;;;;;;;;;10.34;100.00;99265.97;5075205;28;19927;-49
2021/12/08 06:16:13;;;;;;;;;;;;;;;10.09;100.00;99263.53;5075877;28;19932;-50
2021/12/08 06:18:40;;;;;;;;;;;;;;;10.15;100.00;99251.91;5076385;28;19920;-50
2021/12/08 06:21:11;;;;;;;;;;;;;;;10.07;100.00;99254.94;5075188;28;19924;-50
2021/12/08 06:23:37;;;;;;;;;;;;;;;10.15;100.00;99258.09;5075603;28;19920;-48
2021/12/08 06:26:02;;;;;;;;;;;;;;;10.39;100.00;99252.75;5074881;28;20249;-50
2021/12/08 06:28:28;;;;;;;;;;;;;;;10.10;100.00;99270.50;5074864;28;20295;-53
2021/12/08 06:30:53;;;;;;;;;;;;;;;10.23;100.00;99269.47;5076594;28;19920;-49
2021/12/08 06:33:20;;;;;;;;;;;;;;;10.16;100.00;99270.41;5074706;28;20301;-51
2021/12/08 06:35:48;;;;;;;;;;;;;;;10.25;100.00;99264.72;5075315;28;19947;-50
2021/12/08 06:38:14;;;;;;;;;;;;;;;10.07;100.00;99274.44;5075856;28;19921;-50
2021/12/08 06:41:00;;;;;;;;;;;;;;;10.00;100.00;99276.41;5074546;28;20376;-48
2021/12/08 06:43:27;;;;;;;;;;;;;;;9.96;100.00;99289.41;5075481;28;19920;-52
2021/12/08 06:45:55;;;;;;;;;;;;;;;10.09;100.00;99275.03;5076275;28;19950;-49
2021/12/08 06:48:23;;;;;;;;;;;;;;;10.08;100.00;99278.75;5074498;28;19920;-50
2021/12/08 06:50:51;;;;;;;;;;;;;;;9.86;100.00;99276.59;5075670;28;19920;-50
2021/12/08 06:53:17;;;;;;;;;;;;;;;9.73;100.00;99288.31;5075869;28;20383;-50
2021/12/08 06:55:45;;;;;;;;;;;;;;;10.11;100.00;99278.28;5074871;28;19921;-48
2021/12/08 06:58:14;;;;;;;;;;;;;;;10.07;100.00;99292.34;5074890;28;20025;-50
2021/12/08 07:00:56;;;;;;;;;;;;;;;9.85;100.00;99288.34;5075439;28;20376;-50
2021/12/08 07:03:31;;;;;;;;;;;;;;;9.78;100.00;99279.63;5074705;28;19931;-51
2021/12/08 07:08:24;;;;;;;;;;;;;;;9.89;100.00;99292.16;5075485;28;19920;-48
2021/12/08 07:10:51;;;;;;;;;;;;;;;9.70;100.00;99298.66;5074686;28;20007;-48
2021/12/08 07:13:20;;;;;;;;;;;;;;;9.73;100.00;99296.31;5075858;28;20018;-48
2021/12/08 07:15:48;;;;;;;;;;;;;;;9.89;100.00;99308.19;5076019;28;20011;-51
2021/12/08 07:18:22;;;;;;;;;;;;;;;9.79;100.00;99294.59;5075496;28;19943;-54
2021/12/08 07:20:49;;;;;;;;;;;;;;;9.54;100.00;99306.25;5075420;28;20210;-51
2021/12/08 07:23:15;;;;;;;;;;;;;;;9.64;100.00;99326.22;5074113;28;19947;-49
2021/12/08 07:25:41;;;;;;;;;;;;;;;9.92;100.00;99332.81;5057902;28;19924;-53
2021/12/08 07:28:07;;;;;;;;;;;;;;;9.63;100.00;99329.94;5075836;28;19921;-48
2021/12/08 07:30:35;;;;;;;;;;;;;;;9.46;100.00;99338.59;5074521;28;19927;-48
2021/12/08 07:33:01;;;;;;;;;;;;;;;9.61;100.00;99341.66;5075991;28;19916;-51
2021/12/08 07:35:28;;;;;;;;;;;;;;;9.70;100.00;99354.69;5076393;28;19966;-52
2021/12/08 07:37:54;;;;;;;;;;;;;;;9.76;100.00;99359.94;5075553;28;19920;-49
2021/12/08 07:40:43;;;;;;;;;;;;;;;9.77;100.00;99360.75;5075713;28;19921;-51
2021/12/08 07:43:14;;;;;;;;;;;;;;;9.68;100.00;99364.75;5074342;28;19999;-49
2021/12/08 07:45:45;;;;;;;;;;;;;;;9.73;100.00;99370.25;5057182;28;19967;-52
2021/12/08 07:48:14;;;;;;;;;;;;;;;9.84;100.00;99366.81;5074964;28;19920;-48
2021/12/08 07:50:44;;;;;;;;;;;;;;;9.96;100.00;99360.72;5074848;28;20384;-51
2021/12/08 07:53:10;;;;;;;;;;;;;;;9.78;100.00;99365.06;5074908;28;20356;-49
2021/12/08 07:55:39;;;;;;;;;;;;;;;9.82;100.00;99390.25;5075073;28;19924;-51
2021/12/08 07:58:05;;;;;;;;;;;;;;;9.72;100.00;99373.97;5074078;28;20273;-50
2021/12/08 08:00:34;;;;;;;;;;;;;;;9.90;100.00;99376.56;5074342;28;19935;-52
2021/12/08 08:03:00;;;;;;;;;;;;;;;9.91;100.00;99366.72;5075492;28;19974;-54
2021/12/08 08:05:28;;;;;;;;;;;;;;;9.85;100.00;99364.97;5075367;28;19924;-53
2021/12/08 08:07:56;;;;;;;;;;;;;;;10.15;100.00;99370.28;5075792;28;20399;-50
2021/12/08 08:10:22;;;;;;;;;;;;;;;9.77;100.00;99358.09;5075372;28;19927;-52
2021/12/08 08:12:50;;;;;;;;;;;;;;;9.82;100.00;99360.09;5074058;28;19950;-50
2021/12/08 08:15:20;;;;;;;;;;;;;;;9.76;100.00;99335.91;5073737;28;20265;-49
2021/12/08 08:17:47;;;;;;;;;;;;;;;9.69;100.00;99342.41;5057058;28;19928;-51
2021/12/08 08:20:16;;;;;;;;;;;;;;;9.56;100.00;99354.88;5073713;28;19921;-49
2021/12/08 08:22:42;;;;;;;;;;;;;;;9.58;100.00;99351.97;5074791;28;20372;-53
2021/12/08 08:25:09;;;;;;;;;;;;;;;9.74;100.00;99366.56;5074530;28;19927;-52
2021/12/08 08:27:35;;;;;;;;;;;;;;;9.76;100.00;99356.47;5077099;28;19927;-48
2021/12/08 08:30:02;;;;;;;;;;;;;;;9.74;100.00;99369.22;5076186;28;19929;-52
2021/12/08 08:32:33;;;;;;;;;;;;;;;9.67;100.00;99360.47;5073183;28;19920;-49
2021/12/08 08:35:05;;;;;;;;;;;;;;;9.97;100.00;99357.78;5074355;28;19921;-49
2021/12/08 08:37:31;;;;;;;;;;;;;;;10.01;100.00;99364.31;5074952;28;19997;-50
2021/12/08 08:39:59;;;;;;;;;;;;;;;9.79;100.00;99377.34;5074383;28;20348;-50
2021/12/08 08:42:35;;;;;;;;;;;;;;;9.87;100.00;99369.03;5073032;28;19924;-54
2021/12/08 08:45:01;;;;;;;;;;;;;;;9.85;100.00;99379.13;5074433;28;19990;-54
2021/12/08 08:47:46;;;;;;;;;;;;;;;10.13;100.00;99377.69;5073374;28;20372;-52
2021/12/08 08:50:15;;;;;;;;;;;;;;;9.72;100.00;99395.34;5073714;28;19921;-52
2021/12/08 08:52:42;;;;;;;;;;;;;;;9.82;100.00;99392.94;5073710;28;19991;-49
2021/12/08 08:55:11;;;;;;;;;;;;;;;10.03;100.00;99374.78;5073737;28;20395;-53
2021/12/08 08:57:39;;;;;;;;;;;;;;;10.08;100.00;99374.91;5074580;28;19921;-50
2021/12/08 09:00:10;;;;;;;;;;;;;;;10.08;100.00;99380.25;5073287;28;19928;-52
2021/12/08 09:02:38;;;;;;;;;;;;;;;10.10;100.00;99369.34;5073232;28;19920;-53
2021/12/08 09:05:13;;;;;;;;;;;;;;;9.95;100.00;99386.59;5073072;28;19931;-49
2021/12/08 09:07:40;;;;;;;;;;;;;;;10.27;100.00;99388.19;5073269;28;19920;-54
2021/12/08 09:10:09;;;;;;;;;;;;;;;10.01;100.00;99390.22;5071764;28;19927;-50
2021/12/08 09:12:43;;;;;;;;;;;;;;;10.25;100.00;99385.72;5073080;28;20376;-50
2021/12/08 09:15:11;;;;;;;;;;;;;;;10.31;100.00;99394.69;5056013;28;19920;-49
2021/12/08 09:17:39;;;;;;;;;;;;;;;10.46;100.00;99391.63;5072269;28;19916;-53
2021/12/08 09:20:04;;;;;;;;;;;;;;;10.72;100.00;99386.88;5071719;28;19920;-50
2021/12/08 09:22:37;;;;;;;;;;;;;;;10.58;100.00;99387.13;5072283;28;20438;-52
2021/12/08 09:25:02;;;;;;;;;;;;;;;10.56;100.00;99386.53;5072744;28;19921;-50
2021/12/08 09:27:31;;;;;;;;;;;;;;;10.71;100.00;99393.25;5071943;28;20011;-56
2021/12/08 09:29:59;;;;;;;;;;;;;;;12.51;100.00;99399.75;5072621;28;19920;-54
2021/12/08 09:32:31;;;;;;;;;;;;;;;12.14;100.00;99411.75;5073249;28;19927;-52
2021/12/08 09:35:04;;;;;;;;;;;;;;;12.89;100.00;99398.19;5073243;28;19920;-52
2021/12/08 09:37:36;;;;;;;;;;;;;;;12.32;100.00;99392.75;5072333;28;19920;-51
2021/12/08 09:40:22;;;;;;;;;;;;;;;12.65;100.00;99400.25;5072181;28;20284;-55
2021/12/08 09:42:53;;;;;;;;;;;;;;;12.53;100.00;99411.84;5073455;28;20014;-54
2021/12/08 09:45:22;;;;;;;;;;;;;;;13.31;100.00;99427.22;5073530;28;19920;-52
2021/12/08 09:47:47;;;;;;;;;;;;;;;12.62;100.00;99414.94;5077586;28;19974;-52
2021/12/08 09:50:14;;;;;;;;;;;;;;;13.68;96.70;99436.56;5078202;28;19916;-55
2021/12/08 09:52:41;;;;;;;;;;;;;;;14.84;85.47;99429.34;5076471;28;19920;-53
2021/12/08 09:55:09;;;;;;;;;;;;;;;14.24;89.13;99415.91;5059190;28;19927;-50
2021/12/08 09:57:34;;;;;;;;;;;;;;;14.54;82.09;99419.97;5076197;28;19931;-50
2021/12/08 10:00:00;;;;;;;;;;;;;;;14.28;86.37;99411.66;5075873;28;19925;-50
2021/12/08 10:02:32;;;;;;;;;;;;;;;15.09;79.00;99412.53;5075926;28;20428;-50
2021/12/08 10:04:58;;;;;;;;;;;;;;;14.62;79.73;99422.16;5076020;28;20357;-51
2021/12/08 10:07:25;;;;;;;;;;;;;;;14.79;78.67;99415.88;5075832;28;19925;-53
2021/12/08 10:09:50;;;;;;;;;;;;;;;15.81;70.68;99406.66;5075274;28;20317;-53
2021/12/08 10:12:16;;;;;;;;;;;;;;;15.47;69.52;99396.31;5076390;28;19927;-51
2021/12/08 10:14:42;;;;;;;;;;;;;;;15.76;70.23;99398.56;5076256;28;20432;-52
2021/12/08 10:17:07;;;;;;;;;;;;;;;15.98;67.06;99381.41;5076204;28;20007;-55
2021/12/08 10:19:33;;;;;;;;;;;;;;;16.23;63.51;99379.81;5075064;28;19955;-53
2021/12/08 10:21:59;;;;;;;;;;;;;;;15.40;65.97;99404.63;5076149;28;20348;-51
2021/12/08 10:24:26;;;;;;;;;;;;;;;15.99;65.34;99394.59;5076013;28;19920;-52
2021/12/08 10:26:53;;;;;;;;;;;;;;;16.20;59.74;99403.53;5076510;28;19924;-56
2021/12/08 10:29:29;;;;;;;;;;;;;;;15.70;65.73;99386.94;5076664;28;19924;-50
2021/12/08 10:31:55;;;;;;;;;;;;;;;15.97;65.51;99402.13;5075849;28;20283;-52
2021/12/08 10:34:24;;;;;;;;;;;;;;;16.32;62.78;99394.38;5075944;28;20391;-54
2021/12/08 10:36:57;;;;;;;;;;;;;;;16.16;62.84;99399.75;5076327;28;20345;-51
2021/12/08 10:39:33;;;;;;;;;;;;;;;15.85;61.37;99421.22;5074836;28;19921;-49
2021/12/08 10:41:59;;;;;;;;;;;;;;;15.43;65.04;99395.19;5076290;28;19921;-50
2021/12/08 10:44:31;;;;;;;;;;;;;;;16.32;62.59;99400.56;5074465;28;20019;-54
2021/12/08 10:46:58;;;;;;;;;;;;;;;15.56;62.43;99394.72;5074293;28;20368;-55
2021/12/08 10:54:44;;;;;;;;;;;;;;;17.61;53.73;99407.63;5074848;28;19924;-51
2021/12/08 10:57:27;;;;;;;;;;;;;;;17.08;53.68;99410.78;5075083;28;19932;-52
2021/12/08 10:59:58;;;;;;;;;;;;;;;16.93;54.02;99422.41;5076110;28;19920;-54
2021/12/08 11:02:35;;;;;;;;;;;;;;;17.49;52.31;99402.56;5058200;28;19927;-50
2021/12/08 11:05:01;;;;;;;;;;;;;;;17.20;51.83;99418.59;5075535;28;20343;-50
2021/12/08 11:07:26;;;;;;;;;;;;;;;16.71;55.32;99425.38;5075927;28;19946;-53
2021/12/08 11:09:51;;;;;;;;;;;;;;;17.65;51.18;99421.41;5075295;28;19924;-54
2021/12/08 11:12:17;;;;;;;;;;;;;;;17.86;49.29;99415.88;5075825;28;19985;-51
2021/12/08 11:14:51;;;;;;;;;;;;;;;18.42;49.23;99438.28;5075418;28;19924;-50
2021/12/08 11:17:27;;;;;;;;;;;;;;;17.53;50.28;99426.31;5075540;28;19981;-54
2021/12/08 11:20:11;;;;;;;;;;;;;;;16.64;52.71;99431.06;5075145;28;19986;-52
2021/12/08 11:22:37;;;;;;;;;;;;;;;17.49;52.08;99434.16;5075121;28;19921;-54
2021/12/08 11:25:03;;;;;;;;;;;;;;;17.30;50.54;99437.50;5075543;28;20371;-53
2021/12/08 11:27:30;;;;;;;;;;;;;;;15.98;57.47;99441.50;5073775;28;20372;-51
2021/12/08 11:29:56;;;;;;;;;;;;;;;15.23;61.08;99450.63;5073862;28;19944;-49
2021/12/08 11:32:24;;;;;;;;;;;;;;;14.60;68.95;99456.59;5057082;28;19928;-53
2021/12/08 11:34:51;;;;;;;;;;;;;;;13.91;77.66;99467.75;5074818;28;19920;-51
2021/12/08 11:37:32;;;;;;;;;;;;;;;13.59;83.62;99460.34;5074147;28;20238;-52
2021/12/08 11:40:01;;;;;;;;;;;;;;;13.59;85.53;99467.63;5075931;28;20017;-54
2021/12/08 11:42:31;;;;;;;;;;;;;;;13.77;85.46;99466.50;5074885;28;19959;-53
2021/12/08 11:44:58;;;;;;;;;;;;;;;14.17;83.53;99462.66;5074914;28;20007;-52
2021/12/08 11:47:29;;;;;;;;;;;;;;;14.16;82.19;99471.78;5075234;28;19921;-51
2021/12/08 11:50:00;;;;;;;;;;;;;;;14.27;76.36;99464.63;5074383;28;19921;-54
2021/12/08 11:52:29;;;;;;;;;;;;;;;16.06;65.55;99469.84;5074892;28;19920;-52
2021/12/08 11:55:02;;;;;;;;;;;;;;;18.15;54.85;99467.41;5075152;28;20379;-53
2021/12/08 11:57:39;;;;;;;;;;;;;;;18.20;51.73;99502.53;5073337;28;19920;-52
2021/12/08 12:00:18;;;;;;;;;;;;;;;17.78;52.55;99482.19;5073744;28;19921;-51
2021/12/08 12:02:54;;;;;;;;;;;;;;;17.22;55.28;99488.56;5074475;28;19966;-52
2021/12/08 12:05:21;;;;;;;;;;;;;;;16.61;57.03;99491.00;5074429;28;19920;-53
2021/12/08 12:07:47;;;;;;;;;;;;;;;16.57;58.14;99498.81;5073524;28;20268;-53
2021/12/08 12:10:14;;;;;;;;;;;;;;;17.23;54.95;99493.69;5072257;28;19920;-52
2021/12/08 12:12:41;;;;;;;;;;;;;;;17.51;51.99;99490.66;5074838;28;20337;-51
2021/12/08 12:15:08;;;;;;;;;;;;;;;16.80;55.85;99503.94;5074953;28;19927;-49
2021/12/08 12:17:33;;;;;;;;;;;;;;;15.69;62.67;99497.72;5074151;28;19925;-52
2021/12/08 12:20:08;;;;;;;;;;;;;;;15.38;65.83;99494.84;5074027;28;19920;-49
2021/12/08 12:22:36;;;;;;;;;;;;;;;17.49;55.69;99499.03;5073021;28;19967;-52
2021/12/08 12:25:02;;;;;;;;;;;;;;;19.48;47.43;99501.00;5074626;28;19924;-54
2021/12/08 12:27:45;;;;;;;;;;;;;;;19.14;47.92;99513.53;5074060;28;19949;-54
2021/12/08 12:30:17;;;;;;;;;;;;;;;18.81;47.86;99505.16;5074044;28;20032;-53
2021/12/08 12:32:42;;;;;;;;;;;;;;;18.94;46.49;99506.38;5073944;28;19931;-52
2021/12/08 12:35:19;;;;;;;;;;;;;;;19.15;45.19;99515.16;5074394;28;19917;-54
2021/12/08 12:37:45;;;;;;;;;;;;;;;18.90;45.92;99518.84;5072731;28;19973;-53
2021/12/08 12:40:12;;;;;;;;;;;;;;;19.46;45.02;99533.03;5074132;28;19975;-55
2021/12/08 12:42:45;;;;;;;;;;;;;;;18.60;46.17;99532.38;5073905;28;19920;-50
2021/12/08 12:45:13;;;;;;;;;;;;;;;16.96;50.22;99546.06;5073971;28;20352;-54
2021/12/08 12:47:39;;;;;;;;;;;;;;;15.96;58.39;99534.53;5072345;28;19931;-53
2021/12/08 12:50:13;;;;;;;;;;;;;;;15.84;62.59;99535.50;5072566;28;19917;-53
2021/12/08 12:52:49;;;;;;;;;;;;;;;14.74;70.13;99545.81;5055919;28;19927;-56
2021/12/08 12:55:17;;;;;;;;;;;;;;;14.80;72.82;99550.16;5073592;28;19927;-55
2021/12/08 12:58:09;;;;;;;;;;;;;;;14.46;75.92;99553.84;5073858;28;19920;-52
2021/12/08 13:00:34;;;;;;;;;;;;;;;14.33;80.84;99536.22;5072186;28;19920;-50
2021/12/08 13:03:01;;;;;;;;;;;;;;;14.35;78.39;99541.34;5073417;28;20330;-53
2021/12/08 13:05:45;;;;;;;;;;;;;;;14.34;79.94;99531.66;5073073;28;19924;-52
2021/12/08 13:08:11;;;;;;;;;;;;;;;15.99;66.77;99529.41;5073471;28;19970;-56
2021/12/08 13:10:39;;;;;;;;;;;;;;;16.58;60.01;99540.09;5072859;28;20350;-55
2021/12/08 13:13:09;;;;;;;;;;;;;;;16.91;56.99;99549.56;5072136;28;19920;-54
2021/12/08 13:15:34;;;;;;;;;;;;;;;17.00;54.50;99559.88;5072995;28;19921;-51
2021/12/08 13:18:00;;;;;;;;;;;;;;;16.85;55.85;99571.47;5072113;28;19917;-52
2021/12/08 13:20:27;;;;;;;;;;;;;;;17.66;51.58;99573.59;5072662;28;19999;-55
2021/12/08 13:22:55;;;;;;;;;;;;;;;17.95;50.41;99556.75;5073462;28;19928;-53
2021/12/08 13:25:38;;;;;;;;;;;;;;;17.09;52.60;99552.06;5074034;28;19928;-51
2021/12/08 13:28:09;;;;;;;;;;;;;;;17.70;50.76;99543.03;5072756;28;19920;-51
2021/12/08 13:30:40;;;;;;;;;;;;;;;17.60;51.53;99543.88;5072708;28;19921;-54
2021/12/08 13:33:20;;;;;;;;;;;;;;;17.85;50.77;99554.88;5071969;28;19952;-51
2021/12/08 13:35:45;;;;;;;;;;;;;;;18.04;50.11;99555.13;5071893;28;19921;-54
2021/12/08 13:38:10;;;;;;;;;;;;;;;18.48;49.37;99550.84;5055460;28;20014;-50
2021/12/08 13:40:48;;;;;;;;;;;;;;;18.03;49.95;99550.81;5073271;28;19920;-52
2021/12/08 13:43:33;;;;;;;;;;;;;;;18.06;50.00;99555.66;5071768;28;19921;-53